sensor_id;sensor_type;location;lat;lon;timestamp;P1;durP1;ratioP1;P2;durP2;ratioP2
4222;SDS011;2125;51.436;14.138;2022-10-16T00:01:38;15.77;;;6.60;;
4222;SDS011;2125;51.436;14.138;2022-10-16T00:04:05;9.67;;;5.50;;
4222;SDS011;2125;51.436;14.138;2022-10-16T00:06:32;14.53;;;6.37;;
4222;SDS011;2125;51.436;14.138;2022-10-16T00:08:59;16.27;;;6.70;;
4222;SDS011;2125;51.436;14.138;2022-10-16T00:11:26;13.47;;;5.47;;
4222;SDS011;2125;51.436;14.138;2022-10-16T00:13:54;11.70;;;6.00;;
4222;SDS011;2125;51.436;14.138;2022-10-16T00:16:22;11.63;;;6.03;;
4222;SDS011;2125;51.436;14.138;2022-10-16T00:18:50;12.40;;;6.20;;
4222;SDS011;2125;51.436;14.138;2022-10-16T00:21:18;13.00;;;6.07;;
4222;SDS011;2125;51.436;14.138;2022-10-16T00:23:46;13.20;;;5.97;;
4222;SDS011;2125;51.436;14.138;2022-10-16T00:26:16;13.07;;;6.10;;
4222;SDS011;2125;51.436;14.138;2022-10-16T00:28:45;13.20;;;6.07;;
4222;SDS011;2125;51.436;14.138;2022-10-16T00:31:12;13.10;;;6.07;;
4222;SDS011;2125;51.436;14.138;2022-10-16T00:33:39;15.00;;;6.87;;
4222;SDS011;2125;51.436;14.138;2022-10-16T00:36:09;14.53;;;6.50;;
4222;SDS011;2125;51.436;14.138;2022-10-16T00:38:37;13.00;;;6.13;;
4222;SDS011;2125;51.436;14.138;2022-10-16T00:41:04;13.90;;;7.63;;
4222;SDS011;2125;51.436;14.138;2022-10-16T00:43:40;101.77;;;39.70;;
4222;SDS011;2125;51.436;14.138;2022-10-16T00:46:13;30.53;;;12.60;;
4222;SDS011;2125;51.436;14.138;2022-10-16T00:48:45;19.93;;;8.53;;
4222;SDS011;2125;51.436;14.138;2022-10-16T00:51:15;37.90;;;16.20;;
4222;SDS011;2125;51.436;14.138;2022-10-16T00:53:45;23.57;;;11.20;;
4222;SDS011;2125;51.436;14.138;2022-10-16T00:56:12;22.30;;;11.73;;
4222;SDS011;2125;51.436;14.138;2022-10-16T00:58:38;30.93;;;16.27;;
4222;SDS011;2125;51.436;14.138;2022-10-16T01:01:05;26.13;;;13.20;;
4222;SDS011;2125;51.436;14.138;2022-10-16T01:03:33;20.20;;;11.80;;
4222;SDS011;2125;51.436;14.138;2022-10-16T01:06:05;19.70;;;10.37;;
4222;SDS011;2125;51.436;14.138;2022-10-16T01:08:44;23.70;;;11.60;;
4222;SDS011;2125;51.436;14.138;2022-10-16T01:11:21;18.23;;;9.40;;
4222;SDS011;2125;51.436;14.138;2022-10-16T01:13:53;15.90;;;8.57;;
4222;SDS011;2125;51.436;14.138;2022-10-16T01:16:26;15.73;;;7.77;;
4222;SDS011;2125;51.436;14.138;2022-10-16T01:19:00;17.13;;;6.73;;
4222;SDS011;2125;51.436;14.138;2022-10-16T01:21:34;13.10;;;6.97;;
4222;SDS011;2125;51.436;14.138;2022-10-16T01:24:08;14.27;;;7.10;;
4222;SDS011;2125;51.436;14.138;2022-10-16T01:26:44;15.27;;;6.70;;
4222;SDS011;2125;51.436;14.138;2022-10-16T01:29:19;12.10;;;6.00;;
4222;SDS011;2125;51.436;14.138;2022-10-16T01:31:50;13.53;;;6.63;;
4222;SDS011;2125;51.436;14.138;2022-10-16T01:34:23;13.40;;;6.50;;
4222;SDS011;2125;51.436;14.138;2022-10-16T01:36:55;13.30;;;6.33;;
4222;SDS011;2125;51.436;14.138;2022-10-16T01:39:28;11.97;;;5.80;;
4222;SDS011;2125;51.436;14.138;2022-10-16T01:42:00;12.23;;;5.90;;
4222;SDS011;2125;51.436;14.138;2022-10-16T01:44:32;12.40;;;6.10;;
4222;SDS011;2125;51.436;14.138;2022-10-16T01:47:01;12.80;;;6.10;;
4222;SDS011;2125;51.436;14.138;2022-10-16T01:49:29;14.40;;;6.87;;
4222;SDS011;2125;51.436;14.138;2022-10-16T01:52:00;14.07;;;6.47;;
4222;SDS011;2125;51.436;14.138;2022-10-16T01:54:30;14.10;;;7.03;;
4222;SDS011;2125;51.436;14.138;2022-10-16T01:57:01;10.63;;;5.60;;
4222;SDS011;2125;51.436;14.138;2022-10-16T01:59:32;14.50;;;6.83;;
4222;SDS011;2125;51.436;14.138;2022-10-16T02:02:04;10.93;;;5.97;;
4222;SDS011;2125;51.436;14.138;2022-10-16T02:04:34;13.60;;;6.70;;
4222;SDS011;2125;51.436;14.138;2022-10-16T02:07:04;13.77;;;6.00;;
4222;SDS011;2125;51.436;14.138;2022-10-16T02:09:32;12.03;;;6.37;;
4222;SDS011;2125;51.436;14.138;2022-10-16T02:12:01;15.57;;;6.70;;
4222;SDS011;2125;51.436;14.138;2022-10-16T02:14:35;13.93;;;7.10;;
4222;SDS011;2125;51.436;14.138;2022-10-16T02:17:09;13.23;;;7.00;;
4222;SDS011;2125;51.436;14.138;2022-10-16T02:19:37;14.13;;;6.33;;
4222;SDS011;2125;51.436;14.138;2022-10-16T02:22:03;16.27;;;6.13;;
4222;SDS011;2125;51.436;14.138;2022-10-16T02:24:35;14.30;;;6.77;;
4222;SDS011;2125;51.436;14.138;2022-10-16T02:27:10;13.43;;;6.70;;
4222;SDS011;2125;51.436;14.138;2022-10-16T02:29:41;15.53;;;7.60;;
4222;SDS011;2125;51.436;14.138;2022-10-16T02:32:15;12.13;;;6.30;;
4222;SDS011;2125;51.436;14.138;2022-10-16T02:34:45;15.30;;;7.60;;
4222;SDS011;2125;51.436;14.138;2022-10-16T02:37:14;14.23;;;7.00;;
4222;SDS011;2125;51.436;14.138;2022-10-16T02:39:41;13.60;;;6.53;;
4222;SDS011;2125;51.436;14.138;2022-10-16T02:42:09;14.87;;;7.03;;
4222;SDS011;2125;51.436;14.138;2022-10-16T02:44:37;15.80;;;7.63;;
4222;SDS011;2125;51.436;14.138;2022-10-16T02:47:05;15.83;;;7.63;;
4222;SDS011;2125;51.436;14.138;2022-10-16T02:49:32;13.17;;;7.43;;
4222;SDS011;2125;51.436;14.138;2022-10-16T02:51:59;15.83;;;7.50;;
4222;SDS011;2125;51.436;14.138;2022-10-16T02:54:25;16.47;;;8.27;;
4222;SDS011;2125;51.436;14.138;2022-10-16T02:56:52;15.63;;;7.33;;
4222;SDS011;2125;51.436;14.138;2022-10-16T02:59:18;14.37;;;7.33;;
4222;SDS011;2125;51.436;14.138;2022-10-16T03:01:45;15.20;;;7.50;;
4222;SDS011;2125;51.436;14.138;2022-10-16T03:04:13;14.63;;;7.20;;
4222;SDS011;2125;51.436;14.138;2022-10-16T03:06:40;13.53;;;7.10;;
4222;SDS011;2125;51.436;14.138;2022-10-16T03:09:06;12.40;;;6.50;;
4222;SDS011;2125;51.436;14.138;2022-10-16T03:11:33;15.00;;;7.43;;
4222;SDS011;2125;51.436;14.138;2022-10-16T03:14:00;15.47;;;7.40;;
4222;SDS011;2125;51.436;14.138;2022-10-16T03:16:26;14.97;;;7.70;;
4222;SDS011;2125;51.436;14.138;2022-10-16T03:18:53;15.60;;;6.97;;
4222;SDS011;2125;51.436;14.138;2022-10-16T03:21:21;11.57;;;5.53;;
4222;SDS011;2125;51.436;14.138;2022-10-16T03:23:47;13.27;;;6.70;;
4222;SDS011;2125;51.436;14.138;2022-10-16T03:26:14;11.90;;;6.13;;
4222;SDS011;2125;51.436;14.138;2022-10-16T03:28:40;11.17;;;6.00;;
4222;SDS011;2125;51.436;14.138;2022-10-16T03:31:07;12.10;;;6.10;;
4222;SDS011;2125;51.436;14.138;2022-10-16T03:33:34;11.87;;;6.07;;
4222;SDS011;2125;51.436;14.138;2022-10-16T03:36:00;12.87;;;5.80;;
4222;SDS011;2125;51.436;14.138;2022-10-16T03:38:28;13.33;;;6.27;;
4222;SDS011;2125;51.436;14.138;2022-10-16T03:40:55;10.00;;;5.40;;
4222;SDS011;2125;51.436;14.138;2022-10-16T03:43:21;10.10;;;5.70;;
4222;SDS011;2125;51.436;14.138;2022-10-16T03:45:49;10.43;;;5.20;;
4222;SDS011;2125;51.436;14.138;2022-10-16T03:48:16;11.07;;;5.40;;
4222;SDS011;2125;51.436;14.138;2022-10-16T03:50:43;10.77;;;5.50;;
4222;SDS011;2125;51.436;14.138;2022-10-16T03:53:09;11.97;;;6.17;;
4222;SDS011;2125;51.436;14.138;2022-10-16T03:55:37;10.60;;;5.67;;
4222;SDS011;2125;51.436;14.138;2022-10-16T03:58:04;15.00;;;5.73;;
4222;SDS011;2125;51.436;14.138;2022-10-16T04:00:32;9.57;;;5.10;;
4222;SDS011;2125;51.436;14.138;2022-10-16T04:02:59;9.83;;;5.30;;
4222;SDS011;2125;51.436;14.138;2022-10-16T04:05:26;15.90;;;5.57;;
4222;SDS011;2125;51.436;14.138;2022-10-16T04:07:52;8.33;;;4.20;;
4222;SDS011;2125;51.436;14.138;2022-10-16T04:10:20;11.37;;;5.97;;
4222;SDS011;2125;51.436;14.138;2022-10-16T04:12:47;9.30;;;5.07;;
4222;SDS011;2125;51.436;14.138;2022-10-16T04:15:14;9.47;;;5.03;;
4222;SDS011;2125;51.436;14.138;2022-10-16T04:17:41;10.13;;;5.40;;
4222;SDS011;2125;51.436;14.138;2022-10-16T04:20:07;9.80;;;5.80;;
4222;SDS011;2125;51.436;14.138;2022-10-16T04:22:34;12.00;;;5.80;;
4222;SDS011;2125;51.436;14.138;2022-10-16T04:25:01;10.50;;;5.37;;
4222;SDS011;2125;51.436;14.138;2022-10-16T04:27:28;10.10;;;5.37;;
4222;SDS011;2125;51.436;14.138;2022-10-16T04:29:57;10.23;;;5.20;;
4222;SDS011;2125;51.436;14.138;2022-10-16T04:32:25;10.87;;;5.47;;
4222;SDS011;2125;51.436;14.138;2022-10-16T04:34:53;10.30;;;5.00;;
4222;SDS011;2125;51.436;14.138;2022-10-16T04:37:22;12.90;;;5.60;;
4222;SDS011;2125;51.436;14.138;2022-10-16T04:39:49;10.87;;;5.67;;
4222;SDS011;2125;51.436;14.138;2022-10-16T04:42:16;8.87;;;5.37;;
4222;SDS011;2125;51.436;14.138;2022-10-16T04:44:42;11.23;;;5.67;;
4222;SDS011;2125;51.436;14.138;2022-10-16T04:47:10;11.33;;;6.00;;
4222;SDS011;2125;51.436;14.138;2022-10-16T04:49:37;13.83;;;6.83;;
4222;SDS011;2125;51.436;14.138;2022-10-16T04:52:04;10.40;;;5.60;;
4222;SDS011;2125;51.436;14.138;2022-10-16T04:54:30;10.40;;;5.43;;
4222;SDS011;2125;51.436;14.138;2022-10-16T04:56:57;11.70;;;6.30;;
4222;SDS011;2125;51.436;14.138;2022-10-16T04:59:24;10.63;;;5.90;;
4222;SDS011;2125;51.436;14.138;2022-10-16T05:01:50;10.13;;;5.30;;
4222;SDS011;2125;51.436;14.138;2022-10-16T05:04:18;13.20;;;6.13;;
4222;SDS011;2125;51.436;14.138;2022-10-16T05:06:45;9.17;;;5.27;;
4222;SDS011;2125;51.436;14.138;2022-10-16T05:09:12;8.17;;;4.97;;
4222;SDS011;2125;51.436;14.138;2022-10-16T05:11:39;10.17;;;5.50;;
4222;SDS011;2125;51.436;14.138;2022-10-16T05:14:05;11.80;;;6.23;;
4222;SDS011;2125;51.436;14.138;2022-10-16T05:16:32;10.00;;;6.00;;
4222;SDS011;2125;51.436;14.138;2022-10-16T05:18:59;8.77;;;5.37;;
4222;SDS011;2125;51.436;14.138;2022-10-16T05:21:27;11.07;;;6.30;;
4222;SDS011;2125;51.436;14.138;2022-10-16T05:23:54;11.70;;;6.23;;
4222;SDS011;2125;51.436;14.138;2022-10-16T05:26:20;12.57;;;6.33;;
4222;SDS011;2125;51.436;14.138;2022-10-16T05:28:47;10.93;;;5.93;;
4222;SDS011;2125;51.436;14.138;2022-10-16T05:31:16;12.90;;;6.83;;
4222;SDS011;2125;51.436;14.138;2022-10-16T05:33:43;9.63;;;5.67;;
4222;SDS011;2125;51.436;14.138;2022-10-16T05:36:10;9.70;;;6.30;;
4222;SDS011;2125;51.436;14.138;2022-10-16T05:38:39;9.50;;;5.63;;
4222;SDS011;2125;51.436;14.138;2022-10-16T05:41:06;12.10;;;5.77;;
4222;SDS011;2125;51.436;14.138;2022-10-16T05:43:32;14.43;;;8.57;;
4222;SDS011;2125;51.436;14.138;2022-10-16T05:46:00;15.27;;;8.53;;
4222;SDS011;2125;51.436;14.138;2022-10-16T05:48:29;20.43;;;10.80;;
4222;SDS011;2125;51.436;14.138;2022-10-16T05:50:57;25.97;;;13.37;;
4222;SDS011;2125;51.436;14.138;2022-10-16T05:53:24;13.30;;;7.33;;
4222;SDS011;2125;51.436;14.138;2022-10-16T05:55:53;13.27;;;6.47;;
4222;SDS011;2125;51.436;14.138;2022-10-16T05:58:20;14.37;;;6.37;;
4222;SDS011;2125;51.436;14.138;2022-10-16T06:00:52;15.17;;;6.90;;
4222;SDS011;2125;51.436;14.138;2022-10-16T06:03:20;11.43;;;6.47;;
4222;SDS011;2125;51.436;14.138;2022-10-16T06:05:46;31.90;;;15.60;;
4222;SDS011;2125;51.436;14.138;2022-10-16T06:08:13;21.77;;;9.77;;
4222;SDS011;2125;51.436;14.138;2022-10-16T06:10:41;41.47;;;20.07;;
4222;SDS011;2125;51.436;14.138;2022-10-16T06:13:09;10.47;;;6.17;;
4222;SDS011;2125;51.436;14.138;2022-10-16T06:15:37;11.70;;;5.97;;
4222;SDS011;2125;51.436;14.138;2022-10-16T06:18:06;12.83;;;6.30;;
4222;SDS011;2125;51.436;14.138;2022-10-16T06:20:33;14.30;;;8.77;;
4222;SDS011;2125;51.436;14.138;2022-10-16T06:23:00;15.93;;;7.90;;
4222;SDS011;2125;51.436;14.138;2022-10-16T06:25:27;13.43;;;7.50;;
4222;SDS011;2125;51.436;14.138;2022-10-16T06:27:53;13.93;;;7.50;;
4222;SDS011;2125;51.436;14.138;2022-10-16T06:30:21;16.40;;;8.53;;
4222;SDS011;2125;51.436;14.138;2022-10-16T06:32:48;16.10;;;7.80;;
4222;SDS011;2125;51.436;14.138;2022-10-16T06:35:14;12.20;;;7.07;;
4222;SDS011;2125;51.436;14.138;2022-10-16T06:37:42;16.90;;;10.60;;
4222;SDS011;2125;51.436;14.138;2022-10-16T06:40:09;14.10;;;7.67;;
4222;SDS011;2125;51.436;14.138;2022-10-16T06:42:36;12.40;;;6.90;;
4222;SDS011;2125;51.436;14.138;2022-10-16T06:45:02;13.33;;;7.27;;
4222;SDS011;2125;51.436;14.138;2022-10-16T06:47:30;12.63;;;6.63;;
4222;SDS011;2125;51.436;14.138;2022-10-16T06:49:57;15.53;;;7.90;;
4222;SDS011;2125;51.436;14.138;2022-10-16T06:52:23;16.43;;;8.10;;
4222;SDS011;2125;51.436;14.138;2022-10-16T06:54:50;15.53;;;7.57;;
4222;SDS011;2125;51.436;14.138;2022-10-16T06:57:17;31.83;;;16.73;;
4222;SDS011;2125;51.436;14.138;2022-10-16T06:59:43;30.87;;;12.50;;
4222;SDS011;2125;51.436;14.138;2022-10-16T07:02:10;19.47;;;9.00;;
4222;SDS011;2125;51.436;14.138;2022-10-16T07:04:38;17.87;;;9.00;;
4222;SDS011;2125;51.436;14.138;2022-10-16T07:07:05;22.47;;;11.40;;
4222;SDS011;2125;51.436;14.138;2022-10-16T07:09:31;27.33;;;12.70;;
4222;SDS011;2125;51.436;14.138;2022-10-16T07:11:58;18.13;;;9.73;;
4222;SDS011;2125;51.436;14.138;2022-10-16T07:14:24;26.13;;;14.13;;
4222;SDS011;2125;51.436;14.138;2022-10-16T07:16:51;16.13;;;8.33;;
4222;SDS011;2125;51.436;14.138;2022-10-16T07:19:17;16.30;;;9.00;;
4222;SDS011;2125;51.436;14.138;2022-10-16T07:21:45;16.03;;;8.63;;
4222;SDS011;2125;51.436;14.138;2022-10-16T07:24:13;14.33;;;7.73;;
4222;SDS011;2125;51.436;14.138;2022-10-16T07:26:41;13.40;;;7.67;;
4222;SDS011;2125;51.436;14.138;2022-10-16T07:29:11;14.87;;;8.70;;
4222;SDS011;2125;51.436;14.138;2022-10-16T07:31:39;15.13;;;8.90;;
4222;SDS011;2125;51.436;14.138;2022-10-16T07:34:06;15.20;;;7.97;;
4222;SDS011;2125;51.436;14.138;2022-10-16T07:36:33;16.10;;;8.43;;
4222;SDS011;2125;51.436;14.138;2022-10-16T07:39:01;12.97;;;7.27;;
4222;SDS011;2125;51.436;14.138;2022-10-16T07:41:28;16.33;;;7.80;;
4222;SDS011;2125;51.436;14.138;2022-10-16T07:43:57;17.30;;;9.83;;
4222;SDS011;2125;51.436;14.138;2022-10-16T07:46:25;14.23;;;8.70;;
4222;SDS011;2125;51.436;14.138;2022-10-16T07:48:52;13.67;;;7.87;;
4222;SDS011;2125;51.436;14.138;2022-10-16T07:51:19;17.17;;;8.10;;
4222;SDS011;2125;51.436;14.138;2022-10-16T07:53:47;15.80;;;8.17;;
4222;SDS011;2125;51.436;14.138;2022-10-16T07:56:15;12.17;;;7.57;;
4222;SDS011;2125;51.436;14.138;2022-10-16T07:58:43;24.43;;;11.60;;
4222;SDS011;2125;51.436;14.138;2022-10-16T08:01:10;16.50;;;8.30;;
4222;SDS011;2125;51.436;14.138;2022-10-16T08:03:38;16.27;;;9.73;;
4222;SDS011;2125;51.436;14.138;2022-10-16T08:06:08;17.30;;;9.20;;
4222;SDS011;2125;51.436;14.138;2022-10-16T08:08:34;15.53;;;9.33;;
4222;SDS011;2125;51.436;14.138;2022-10-16T08:11:01;13.40;;;7.70;;
4222;SDS011;2125;51.436;14.138;2022-10-16T08:13:31;12.80;;;7.17;;
4222;SDS011;2125;51.436;14.138;2022-10-16T08:15:58;10.77;;;6.17;;
4222;SDS011;2125;51.436;14.138;2022-10-16T08:18:25;12.00;;;6.93;;
4222;SDS011;2125;51.436;14.138;2022-10-16T08:20:54;17.10;;;5.00;;
4222;SDS011;2125;51.436;14.138;2022-10-16T08:23:23;8.83;;;4.37;;
4222;SDS011;2125;51.436;14.138;2022-10-16T08:25:51;6.60;;;4.40;;
4222;SDS011;2125;51.436;14.138;2022-10-16T08:28:23;7.80;;;4.00;;
4222;SDS011;2125;51.436;14.138;2022-10-16T08:30:52;6.83;;;4.00;;
4222;SDS011;2125;51.436;14.138;2022-10-16T08:33:21;5.83;;;3.93;;
4222;SDS011;2125;51.436;14.138;2022-10-16T08:35:52;3.90;;;2.73;;
4222;SDS011;2125;51.436;14.138;2022-10-16T08:38:19;4.70;;;3.17;;
4222;SDS011;2125;51.436;14.138;2022-10-16T08:40:46;5.10;;;2.90;;
4222;SDS011;2125;51.436;14.138;2022-10-16T08:46:13;3.90;;;2.23;;
4222;SDS011;2125;51.436;14.138;2022-10-16T08:48:49;3.70;;;2.40;;
4222;SDS011;2125;51.436;14.138;2022-10-16T08:51:19;3.00;;;2.10;;
4222;SDS011;2125;51.436;14.138;2022-10-16T08:53:49;4.83;;;2.10;;
4222;SDS011;2125;51.436;14.138;2022-10-16T08:56:19;2.87;;;2.23;;
4222;SDS011;2125;51.436;14.138;2022-10-16T08:58:46;3.43;;;2.23;;
4222;SDS011;2125;51.436;14.138;2022-10-16T09:01:16;2.87;;;1.70;;
4222;SDS011;2125;51.436;14.138;2022-10-16T09:03:50;2.87;;;1.90;;
4222;SDS011;2125;51.436;14.138;2022-10-16T09:06:34;2.57;;;1.47;;
4222;SDS011;2125;51.436;14.138;2022-10-16T09:12:02;2.97;;;2.00;;
4222;SDS011;2125;51.436;14.138;2022-10-16T09:14:40;1.60;;;1.50;;
4222;SDS011;2125;51.436;14.138;2022-10-16T09:17:30;5.23;;;2.00;;
4222;SDS011;2125;51.436;14.138;2022-10-16T09:20:10;2.20;;;1.40;;
4222;SDS011;2125;51.436;14.138;2022-10-16T09:22:45;1.40;;;1.20;;
4222;SDS011;2125;51.436;14.138;2022-10-16T09:25:19;1.57;;;1.30;;
4222;SDS011;2125;51.436;14.138;2022-10-16T09:27:48;2.60;;;1.37;;
4222;SDS011;2125;51.436;14.138;2022-10-16T09:30:19;1.50;;;1.20;;
4222;SDS011;2125;51.436;14.138;2022-10-16T09:32:51;7.83;;;1.40;;
4222;SDS011;2125;51.436;14.138;2022-10-16T09:35:22;1.70;;;1.20;;
4222;SDS011;2125;51.436;14.138;2022-10-16T09:38:27;1.47;;;1.30;;
4222;SDS011;2125;51.436;14.138;2022-10-16T09:41:21;1.30;;;1.10;;
4222;SDS011;2125;51.436;14.138;2022-10-16T09:47:43;1.40;;;1.20;;
4222;SDS011;2125;51.436;14.138;2022-10-16T09:51:03;1.40;;;1.30;;
4222;SDS011;2125;51.436;14.138;2022-10-16T09:57:04;1.20;;;1.10;;
4222;SDS011;2125;51.436;14.138;2022-10-16T10:00:17;1.20;;;1.03;;
4222;SDS011;2125;51.436;14.138;2022-10-16T10:12:28;1.40;;;1.30;;
4222;SDS011;2125;51.436;14.138;2022-10-16T10:14:57;1.37;;;1.23;;
4222;SDS011;2125;51.436;14.138;2022-10-16T10:17:44;1.10;;;1.00;;
4222;SDS011;2125;51.436;14.138;2022-10-16T10:20:18;1.40;;;1.20;;
4222;SDS011;2125;51.436;14.138;2022-10-16T10:22:49;1.40;;;1.30;;
4222;SDS011;2125;51.436;14.138;2022-10-16T10:25:22;1.30;;;1.13;;
4222;SDS011;2125;51.436;14.138;2022-10-16T10:28:18;2.50;;;1.20;;
4222;SDS011;2125;51.436;14.138;2022-10-16T10:30:59;3.00;;;1.20;;
4222;SDS011;2125;51.436;14.138;2022-10-16T10:33:37;4.10;;;1.20;;
4222;SDS011;2125;51.436;14.138;2022-10-16T10:36:12;1.17;;;1.07;;
4222;SDS011;2125;51.436;14.138;2022-10-16T10:41:56;1.77;;;1.20;;
4222;SDS011;2125;51.436;14.138;2022-10-16T10:47:47;1.23;;;1.10;;
4222;SDS011;2125;51.436;14.138;2022-10-16T10:50:30;2.93;;;1.00;;
4222;SDS011;2125;51.436;14.138;2022-10-16T10:53:05;1.30;;;1.20;;
4222;SDS011;2125;51.436;14.138;2022-10-16T10:55:39;1.93;;;1.47;;
4222;SDS011;2125;51.436;14.138;2022-10-16T11:01:08;1.03;;;0.90;;
4222;SDS011;2125;51.436;14.138;2022-10-16T11:03:42;1.20;;;1.03;;
4222;SDS011;2125;51.436;14.138;2022-10-16T11:06:19;1.50;;;1.23;;
4222;SDS011;2125;51.436;14.138;2022-10-16T11:08:50;2.50;;;1.30;;
4222;SDS011;2125;51.436;14.138;2022-10-16T11:11:20;1.07;;;0.90;;
4222;SDS011;2125;51.436;14.138;2022-10-16T11:13:54;1.27;;;1.00;;
4222;SDS011;2125;51.436;14.138;2022-10-16T11:16:26;1.87;;;1.30;;
4222;SDS011;2125;51.436;14.138;2022-10-16T11:18:58;1.13;;;1.03;;
4222;SDS011;2125;51.436;14.138;2022-10-16T11:21:31;1.10;;;1.00;;
4222;SDS011;2125;51.436;14.138;2022-10-16T11:24:06;1.33;;;1.10;;
4222;SDS011;2125;51.436;14.138;2022-10-16T11:26:43;1.17;;;1.07;;
4222;SDS011;2125;51.436;14.138;2022-10-16T11:29:16;3.13;;;1.10;;
4222;SDS011;2125;51.436;14.138;2022-10-16T11:31:49;1.60;;;1.27;;
4222;SDS011;2125;51.436;14.138;2022-10-16T11:34:21;1.30;;;1.20;;
4222;SDS011;2125;51.436;14.138;2022-10-16T11:36:51;2.33;;;1.10;;
4222;SDS011;2125;51.436;14.138;2022-10-16T11:39:23;1.30;;;1.10;;
4222;SDS011;2125;51.436;14.138;2022-10-16T11:41:53;1.20;;;1.10;;
4222;SDS011;2125;51.436;14.138;2022-10-16T11:47:22;1.67;;;1.40;;
4222;SDS011;2125;51.436;14.138;2022-10-16T11:49:55;2.27;;;1.17;;
4222;SDS011;2125;51.436;14.138;2022-10-16T11:52:28;1.10;;;0.93;;
4222;SDS011;2125;51.436;14.138;2022-10-16T11:55:01;1.20;;;1.10;;
4222;SDS011;2125;51.436;14.138;2022-10-16T11:57:32;1.17;;;1.07;;
4222;SDS011;2125;51.436;14.138;2022-10-16T12:00:05;1.00;;;0.80;;
4222;SDS011;2125;51.436;14.138;2022-10-16T12:02:48;1.10;;;0.97;;
4222;SDS011;2125;51.436;14.138;2022-10-16T12:05:22;1.20;;;1.10;;
4222;SDS011;2125;51.436;14.138;2022-10-16T12:07:59;1.20;;;1.03;;
4222;SDS011;2125;51.436;14.138;2022-10-16T12:10:32;0.80;;;0.80;;
4222;SDS011;2125;51.436;14.138;2022-10-16T12:13:02;1.00;;;0.90;;
4222;SDS011;2125;51.436;14.138;2022-10-16T12:15:32;1.40;;;0.87;;
4222;SDS011;2125;51.436;14.138;2022-10-16T12:17:59;1.10;;;1.00;;
4222;SDS011;2125;51.436;14.138;2022-10-16T12:20:28;1.27;;;0.80;;
4222;SDS011;2125;51.436;14.138;2022-10-16T12:22:57;1.10;;;1.00;;
4222;SDS011;2125;51.436;14.138;2022-10-16T12:25:27;0.83;;;0.83;;
4222;SDS011;2125;51.436;14.138;2022-10-16T12:27:56;1.20;;;1.10;;
4222;SDS011;2125;51.436;14.138;2022-10-16T12:30:26;1.60;;;1.00;;
4222;SDS011;2125;51.436;14.138;2022-10-16T12:32:56;1.33;;;0.90;;
4222;SDS011;2125;51.436;14.138;2022-10-16T12:35:25;1.13;;;0.90;;
4222;SDS011;2125;51.436;14.138;2022-10-16T12:37:54;4.97;;;1.00;;
4222;SDS011;2125;51.436;14.138;2022-10-16T12:40:32;1.37;;;1.00;;
4222;SDS011;2125;51.436;14.138;2022-10-16T12:43:10;1.23;;;1.13;;
4222;SDS011;2125;51.436;14.138;2022-10-16T12:45:39;2.90;;;1.10;;
4222;SDS011;2125;51.436;14.138;2022-10-16T12:48:19;1.50;;;1.00;;
4222;SDS011;2125;51.436;14.138;2022-10-16T12:50:47;1.00;;;0.90;;
4222;SDS011;2125;51.436;14.138;2022-10-16T12:53:18;1.33;;;0.90;;
4222;SDS011;2125;51.436;14.138;2022-10-16T12:55:49;1.00;;;0.87;;
4222;SDS011;2125;51.436;14.138;2022-10-16T12:58:27;1.63;;;0.80;;
4222;SDS011;2125;51.436;14.138;2022-10-16T13:01:06;1.20;;;1.00;;
4222;SDS011;2125;51.436;14.138;2022-10-16T13:03:57;2.20;;;1.10;;
4222;SDS011;2125;51.436;14.138;2022-10-16T13:06:37;1.10;;;1.00;;
4222;SDS011;2125;51.436;14.138;2022-10-16T13:09:19;1.30;;;1.10;;
4222;SDS011;2125;51.436;14.138;2022-10-16T13:12:23;1.50;;;1.23;;
4222;SDS011;2125;51.436;14.138;2022-10-16T13:15:09;2.03;;;1.70;;
4222;SDS011;2125;51.436;14.138;2022-10-16T13:17:49;1.20;;;1.10;;
4222;SDS011;2125;51.436;14.138;2022-10-16T13:20:28;1.00;;;0.90;;
4222;SDS011;2125;51.436;14.138;2022-10-16T13:23:17;1.00;;;0.90;;
4222;SDS011;2125;51.436;14.138;2022-10-16T13:25:59;1.57;;;1.07;;
4222;SDS011;2125;51.436;14.138;2022-10-16T13:28:38;1.10;;;1.00;;
4222;SDS011;2125;51.436;14.138;2022-10-16T13:31:05;1.10;;;1.00;;
4222;SDS011;2125;51.436;14.138;2022-10-16T13:33:41;1.70;;;1.20;;
4222;SDS011;2125;51.436;14.138;2022-10-16T13:36:34;1.20;;;1.10;;
4222;SDS011;2125;51.436;14.138;2022-10-16T13:39:33;2.00;;;1.20;;
4222;SDS011;2125;51.436;14.138;2022-10-16T13:42:01;1.60;;;1.00;;
4222;SDS011;2125;51.436;14.138;2022-10-16T13:44:30;0.90;;;0.90;;
4222;SDS011;2125;51.436;14.138;2022-10-16T13:47:03;1.20;;;1.10;;
4222;SDS011;2125;51.436;14.138;2022-10-16T13:49:35;1.30;;;1.20;;
4222;SDS011;2125;51.436;14.138;2022-10-16T13:52:03;1.73;;;1.60;;
4222;SDS011;2125;51.436;14.138;2022-10-16T13:54:37;1.23;;;1.10;;
4222;SDS011;2125;51.436;14.138;2022-10-16T13:57:04;1.60;;;1.10;;
4222;SDS011;2125;51.436;14.138;2022-10-16T13:59:33;2.40;;;0.93;;
4222;SDS011;2125;51.436;14.138;2022-10-16T14:02:05;1.23;;;1.13;;
4222;SDS011;2125;51.436;14.138;2022-10-16T14:04:42;1.80;;;1.13;;
4222;SDS011;2125;51.436;14.138;2022-10-16T14:07:20;1.33;;;1.10;;
4222;SDS011;2125;51.436;14.138;2022-10-16T14:10:07;1.37;;;1.20;;
4222;SDS011;2125;51.436;14.138;2022-10-16T14:12:53;2.73;;;1.37;;
4222;SDS011;2125;51.436;14.138;2022-10-16T14:15:21;1.50;;;1.30;;
4222;SDS011;2125;51.436;14.138;2022-10-16T14:18:05;1.20;;;1.10;;
4222;SDS011;2125;51.436;14.138;2022-10-16T14:20:38;0.90;;;0.90;;
4222;SDS011;2125;51.436;14.138;2022-10-16T14:23:18;1.80;;;1.30;;
4222;SDS011;2125;51.436;14.138;2022-10-16T14:25:47;1.50;;;1.40;;
4222;SDS011;2125;51.436;14.138;2022-10-16T14:28:15;2.63;;;1.20;;
4222;SDS011;2125;51.436;14.138;2022-10-16T14:30:52;1.43;;;1.30;;
4222;SDS011;2125;51.436;14.138;2022-10-16T14:33:21;1.27;;;1.00;;
4222;SDS011;2125;51.436;14.138;2022-10-16T14:35:59;1.30;;;1.20;;
4222;SDS011;2125;51.436;14.138;2022-10-16T14:38:29;4.27;;;1.50;;
4222;SDS011;2125;51.436;14.138;2022-10-16T14:40:57;1.30;;;1.20;;
4222;SDS011;2125;51.436;14.138;2022-10-16T14:43:27;1.60;;;1.20;;
4222;SDS011;2125;51.436;14.138;2022-10-16T14:45:57;3.20;;;1.10;;
4222;SDS011;2125;51.436;14.138;2022-10-16T14:48:24;1.40;;;1.30;;
4222;SDS011;2125;51.436;14.138;2022-10-16T14:50:51;1.10;;;1.00;;
4222;SDS011;2125;51.436;14.138;2022-10-16T14:53:18;2.97;;;1.50;;
4222;SDS011;2125;51.436;14.138;2022-10-16T14:55:46;1.63;;;1.30;;
4222;SDS011;2125;51.436;14.138;2022-10-16T14:58:17;3.07;;;1.50;;
4222;SDS011;2125;51.436;14.138;2022-10-16T15:00:45;1.83;;;1.60;;
4222;SDS011;2125;51.436;14.138;2022-10-16T15:03:12;2.90;;;1.40;;
4222;SDS011;2125;51.436;14.138;2022-10-16T15:05:51;1.73;;;1.30;;
4222;SDS011;2125;51.436;14.138;2022-10-16T15:08:21;1.77;;;1.40;;
4222;SDS011;2125;51.436;14.138;2022-10-16T15:10:49;1.27;;;1.17;;
4222;SDS011;2125;51.436;14.138;2022-10-16T15:13:18;3.97;;;1.60;;
4222;SDS011;2125;51.436;14.138;2022-10-16T15:15:51;1.50;;;1.30;;
4222;SDS011;2125;51.436;14.138;2022-10-16T15:18:21;2.10;;;1.40;;
4222;SDS011;2125;51.436;14.138;2022-10-16T15:20:49;1.50;;;1.40;;
4222;SDS011;2125;51.436;14.138;2022-10-16T15:23:21;4.00;;;1.57;;
4222;SDS011;2125;51.436;14.138;2022-10-16T15:25:57;1.53;;;1.37;;
4222;SDS011;2125;51.436;14.138;2022-10-16T15:28:53;1.47;;;1.33;;
4222;SDS011;2125;51.436;14.138;2022-10-16T15:31:20;4.40;;;1.43;;
4222;SDS011;2125;51.436;14.138;2022-10-16T15:33:49;4.13;;;1.97;;
4222;SDS011;2125;51.436;14.138;2022-10-16T15:36:24;1.70;;;1.60;;
4222;SDS011;2125;51.436;14.138;2022-10-16T15:39:01;3.40;;;1.40;;
4222;SDS011;2125;51.436;14.138;2022-10-16T15:41:33;1.80;;;1.40;;
4222;SDS011;2125;51.436;14.138;2022-10-16T15:44:02;4.50;;;2.17;;
4222;SDS011;2125;51.436;14.138;2022-10-16T15:46:45;2.90;;;2.20;;
4222;SDS011;2125;51.436;14.138;2022-10-16T15:49:24;1.70;;;1.60;;
4222;SDS011;2125;51.436;14.138;2022-10-16T15:54:54;2.63;;;1.90;;